sensor_id;sensor_type;location;lat;lon;timestamp;pressure;altitude;pressure_sealevel;temperature;humidity
19674;BME280;9986;50.610;7.230;2024-03-02T00:07:02;144415.78;;;6.52;100.00
19674;BME280;9986;50.610;7.230;2024-03-02T00:41:38;144518.47;;;6.93;100.00
19674;BME280;9986;50.610;7.230;2024-03-02T00:46:55;144520.97;;;6.94;100.00
19674;BME280;9986;50.610;7.230;2024-03-02T00:54:46;144529.78;;;6.98;100.00
19674;BME280;9986;50.610;7.230;2024-03-02T01:15:50;144473.41;;;6.75;100.00
19674;BME280;9986;50.610;7.230;2024-03-02T01:26:18;144475.91;;;6.76;100.00
19674;BME280;9986;50.610;7.230;2024-03-02T01:31:33;144470.89;;;6.74;100.00
19674;BME280;9986;50.610;7.230;2024-03-02T01:36:45;144480.92;;;6.78;100.00
19674;BME280;9986;50.610;7.230;2024-03-02T01:52:35;144428.28;;;6.57;100.00
19674;BME280;9986;50.610;7.230;2024-03-02T02:11:09;144398.22;;;6.46;100.00
19674;BME280;9986;50.610;7.230;2024-03-02T02:19:05;144359.42;;;6.30;100.00
19674;BME280;9986;50.610;7.230;2024-03-02T02:24:18;144326.88;;;6.17;100.00
19674;BME280;9986;50.610;7.230;2024-03-02T02:29:31;144346.89;;;6.25;100.00
19674;BME280;9986;50.610;7.230;2024-03-02T02:40:00;144310.59;;;6.11;100.00
19674;BME280;9986;50.610;7.230;2024-03-02T02:45:13;144290.53;;;6.03;100.00
19674;BME280;9986;50.610;7.230;2024-03-02T03:01:00;144217.94;;;5.74;100.00
19674;BME280;9986;50.610;7.230;2024-03-02T03:08:51;144244.23;;;5.84;100.00
19674;BME280;9986;50.610;7.230;2024-03-02T03:16:41;144202.91;;;5.68;100.00
19674;BME280;9986;50.610;7.230;2024-03-02T03:35:11;144185.41;;;5.61;100.00
19674;BME280;9986;50.610;7.230;2024-03-02T03:51:09;144229.25;;;5.78;100.00
19674;BME280;9986;50.610;7.230;2024-03-02T04:09:30;144296.83;;;6.05;100.00
19674;BME280;9986;50.610;7.230;2024-03-02T04:17:21;144261.78;;;5.91;100.00
19674;BME280;9986;50.610;7.230;2024-03-02T04:25:15;144212.92;;;5.72;100.00
19674;BME280;9986;50.610;7.230;2024-03-02T04:30:28;144205.41;;;5.69;100.00
19674;BME280;9986;50.610;7.230;2024-03-02T04:40:56;144157.84;;;5.50;100.00
19674;BME280;9986;50.610;7.230;2024-03-02T04:46:09;144137.84;;;5.42;100.00
19674;BME280;9986;50.610;7.230;2024-03-02T04:54:04;144137.84;;;5.42;100.00
19674;BME280;9986;50.610;7.230;2024-03-02T05:15:10;144202.91;;;5.68;100.00
19674;BME280;9986;50.610;7.230;2024-03-02T05:30:53;144167.86;;;5.54;100.00
19674;BME280;9986;50.610;7.230;2024-03-02T05:44:14;144190.36;;;5.63;100.00
19674;BME280;9986;50.610;7.230;2024-03-02T06:02:52;144149.09;;;5.47;100.00
19674;BME280;9986;50.610;7.230;2024-03-02T06:13:16;144139.06;;;5.43;100.00
19674;BME280;9986;50.610;7.230;2024-03-02T06:18:29;144126.59;;;5.38;100.00
19674;BME280;9986;50.610;7.230;2024-03-02T06:26:21;144142.84;;;5.44;100.00
19674;BME280;9986;50.610;7.230;2024-03-02T06:34:15;144167.86;;;5.54;100.00
19674;BME280;9986;50.610;7.230;2024-03-02T06:39:29;144146.59;;;5.46;100.00
19674;BME280;9986;50.610;7.230;2024-03-02T06:44:42;144136.61;;;5.42;100.00
19674;BME280;9986;50.610;7.230;2024-03-02T06:52:39;144127.81;;;5.38;100.00
19674;BME280;9986;50.610;7.230;2024-03-02T07:00:30;144115.33;;;5.33;100.00
19674;BME280;9986;50.610;7.230;2024-03-02T07:27:07;144248.02;;;5.86;100.00
19674;BME280;9986;50.610;7.230;2024-03-02T07:32:16;144211.66;;;5.71;100.00
19674;BME280;9986;50.610;7.230;2024-03-02T07:40:09;144263.02;;;5.92;100.00
19674;BME280;9986;50.610;7.230;2024-03-02T07:45:23;144271.77;;;5.95;100.00
19674;BME280;9986;50.610;7.230;2024-03-02T07:50:36;144283.06;;;6.00;100.00
19674;BME280;9986;50.610;7.230;2024-03-02T07:58:29;144343.16;;;6.24;100.00
19674;BME280;9986;50.610;7.230;2024-03-02T08:06:20;144398.22;;;6.46;100.00
19674;BME280;9986;50.610;7.230;2024-03-02T08:14:07;144450.81;;;6.66;100.00
19674;BME280;9986;50.610;7.230;2024-03-02T08:29:55;144460.84;;;6.70;100.00
19674;BME280;9986;50.610;7.230;2024-03-02T08:40:29;144582.39;;;7.19;100.00
19674;BME280;9986;50.610;7.230;2024-03-02T08:48:20;144646.34;;;7.44;100.00
19674;BME280;9986;50.610;7.230;2024-03-02T08:58:54;144706.50;;;7.68;100.00
19674;BME280;9986;50.610;7.230;2024-03-02T09:17:15;144892.17;;;8.41;100.00
19674;BME280;9986;50.610;7.230;2024-03-02T09:25:07;144913.52;;;8.50;100.00
19674;BME280;9986;50.610;7.230;2024-03-02T09:38:25;144951.17;;;8.65;100.00
19674;BME280;9986;50.610;7.230;2024-03-02T09:43:39;144991.34;;;8.81;100.00
19674;BME280;9986;50.610;7.230;2024-03-02T09:54:12;145115.61;;;9.30;100.00
19674;BME280;9986;50.610;7.230;2024-03-02T10:07:34;145149.55;;;9.43;100.00
19674;BME280;9986;50.610;7.230;2024-03-02T10:21:15;145350.64;;;10.23;100.00
19674;BME280;9986;50.610;7.230;2024-03-02T10:29:10;145403.41;;;10.44;100.00
19674;BME280;9986;50.610;7.230;2024-03-02T10:44:59;145475.06;;;10.72;100.00
19674;BME280;9986;50.610;7.230;2024-03-02T10:52:50;145502.78;;;10.83;100.00
19674;BME280;9986;50.610;7.230;2024-03-02T11:00:48;145597.09;;;11.20;100.00
19674;BME280;9986;50.610;7.230;2024-03-02T11:06:02;145682.73;;;11.54;100.00
19674;BME280;9986;50.610;7.230;2024-03-02T11:19:16;145691.53;;;11.58;100.00
19674;BME280;9986;50.610;7.230;2024-03-02T11:24:35;145696.58;;;11.60;100.00
19674;BME280;9986;50.610;7.230;2024-03-02T11:35:04;145731.83;;;11.74;100.00
19674;BME280;9986;50.610;7.230;2024-03-02T11:40:23;145765.80;;;11.87;100.00
19674;BME280;9986;50.610;7.230;2024-03-02T11:50:54;145893.00;;;12.37;100.00
19674;BME280;9986;50.610;7.230;2024-03-02T12:12:24;145918.17;;;12.47;100.00
19674;BME280;9986;50.610;7.230;2024-03-02T12:20:16;146035.41;;;12.94;100.00
19674;BME280;9986;50.610;7.230;2024-03-02T12:30:45;146157.69;;;13.42;100.00
19674;BME280;9986;50.610;7.230;2024-03-02T12:38:42;146288.83;;;13.94;100.00
19674;BME280;9986;50.610;7.230;2024-03-02T13:05:20;146521.08;;;14.85;100.00
19674;BME280;9986;50.610;7.230;2024-03-02T13:13:08;146600.63;;;15.16;100.00
19674;BME280;9986;50.610;7.230;2024-03-02T13:20:56;146611.98;;;15.21;100.00
19674;BME280;9986;50.610;7.230;2024-03-02T13:31:20;146624.69;;;15.26;99.71
19674;BME280;9986;50.610;7.230;2024-03-02T13:39:11;146536.20;;;14.91;100.00
19674;BME280;9986;50.610;7.230;2024-03-02T13:44:26;146547.56;;;14.95;99.34
19674;BME280;9986;50.610;7.230;2024-03-02T13:52:17;146437.75;;;14.52;100.00
19674;BME280;9986;50.610;7.230;2024-03-02T14:05:37;146647.41;;;15.35;100.00
19674;BME280;9986;50.610;7.230;2024-03-02T14:10:50;146705.50;;;15.58;95.60
19674;BME280;9986;50.610;7.230;2024-03-02T14:21:24;146558.97;;;15.00;93.56
19674;BME280;9986;50.610;7.230;2024-03-02T14:26:41;146441.56;;;14.54;99.23
19674;BME280;9986;50.610;7.230;2024-03-02T14:31:55;146382.23;;;14.30;100.00
19674;BME280;9986;50.610;7.230;2024-03-02T14:55:53;146319.11;;;14.05;100.00
19674;BME280;9986;50.610;7.230;2024-03-02T15:01:07;146287.55;;;13.93;100.00
19674;BME280;9986;50.610;7.230;2024-03-02T15:16:53;146303.94;;;13.99;100.00
19674;BME280;9986;50.610;7.230;2024-03-02T15:22:07;146310.28;;;14.02;100.00
19674;BME280;9986;50.610;7.230;2024-03-02T15:29:58;146311.52;;;14.02;100.00
19674;BME280;9986;50.610;7.230;2024-03-02T15:37:48;146301.42;;;13.98;100.00
19674;BME280;9986;50.610;7.230;2024-03-02T15:42:58;146280.02;;;13.90;100.00
19674;BME280;9986;50.610;7.230;2024-03-02T15:48:11;146247.22;;;13.77;100.00
19674;BME280;9986;50.610;7.230;2024-03-02T15:56:02;146235.83;;;13.73;100.00
19674;BME280;9986;50.610;7.230;2024-03-02T16:09:15;146167.73;;;13.46;100.00
19674;BME280;9986;50.610;7.230;2024-03-02T16:19:44;146124.91;;;13.29;100.00
19674;BME280;9986;50.610;7.230;2024-03-02T16:24:54;146092.13;;;13.16;100.00
19674;BME280;9986;50.610;7.230;2024-03-02T16:38:12;146121.09;;;13.27;100.00
19674;BME280;9986;50.610;7.230;2024-03-02T16:43:26;146064.41;;;13.05;100.00
19674;BME280;9986;50.610;7.230;2024-03-02T16:59:23;145997.55;;;12.79;100.00
19674;BME280;9986;50.610;7.230;2024-03-02T17:26:11;145898.05;;;12.39;100.00
19674;BME280;9986;50.610;7.230;2024-03-02T17:34:05;145925.75;;;12.50;100.00
19674;BME280;9986;50.610;7.230;2024-03-02T17:50:14;145862.77;;;12.25;100.00
19674;BME280;9986;50.610;7.230;2024-03-02T18:00:43;145876.62;;;12.31;100.00
19674;BME280;9986;50.610;7.230;2024-03-02T18:08:36;145826.22;;;12.11;100.00
19674;BME280;9986;50.610;7.230;2024-03-02T18:29:52;145797.28;;;12.00;100.00
19674;BME280;9986;50.610;7.230;2024-03-02T18:35:08;145769.55;;;11.89;100.00
19674;BME280;9986;50.610;7.230;2024-03-02T18:51:08;145709.13;;;11.65;100.00
19674;BME280;9986;50.610;7.230;2024-03-02T18:58:58;145644.92;;;11.39;100.00
19674;BME280;9986;50.610;7.230;2024-03-02T19:20:18;145580.73;;;11.14;100.00
19674;BME280;9986;50.610;7.230;2024-03-02T19:28:14;145566.91;;;11.09;100.00
19674;BME280;9986;50.610;7.230;2024-03-02T19:33:26;145539.23;;;10.98;100.00
19674;BME280;9986;50.610;7.230;2024-03-02T19:41:24;145532.97;;;10.95;100.00
19674;BME280;9986;50.610;7.230;2024-03-02T19:49:26;145502.78;;;10.83;100.00
19674;BME280;9986;50.610;7.230;2024-03-02T20:02:40;145496.45;;;10.81;100.00
19674;BME280;9986;50.610;7.230;2024-03-02T20:13:11;145428.55;;;10.54;100.00
19674;BME280;9986;50.610;7.230;2024-03-02T20:23:46;145409.69;;;10.46;100.00
19674;BME280;9986;50.610;7.230;2024-03-02T20:28:59;145409.69;;;10.46;100.00
19674;BME280;9986;50.610;7.230;2024-03-02T20:36:50;145398.38;;;10.42;100.00
19674;BME280;9986;50.610;7.230;2024-03-02T20:52:51;145234.94;;;9.77;100.00
19674;BME280;9986;50.610;7.230;2024-03-02T21:00:44;145226.16;;;9.74;100.00
19674;BME280;9986;50.610;7.230;2024-03-02T21:05:57;145213.58;;;9.69;100.00
19674;BME280;9986;50.610;7.230;2024-03-02T21:11:12;145217.37;;;9.70;100.00
19674;BME280;9986;50.610;7.230;2024-03-02T21:27:19;145150.78;;;9.44;100.00
19674;BME280;9986;50.610;7.230;2024-03-02T21:43:07;145129.41;;;9.35;100.00
19674;BME280;9986;50.610;7.230;2024-03-02T21:48:22;145114.38;;;9.29;100.00
19674;BME280;9986;50.610;7.230;2024-03-02T21:53:38;145104.31;;;9.26;100.00
19674;BME280;9986;50.610;7.230;2024-03-02T21:58:51;145106.83;;;9.27;100.00
19674;BME280;9986;50.610;7.230;2024-03-02T22:09:32;145125.67;;;9.34;100.00
19674;BME280;9986;50.610;7.230;2024-03-02T22:22:42;145145.75;;;9.42;100.00
19674;BME280;9986;50.610;7.230;2024-03-02T22:27:54;145135.73;;;9.38;100.00
19674;BME280;9986;50.610;7.230;2024-03-02T22:33:07;145155.81;;;9.46;100.00
19674;BME280;9986;50.610;7.230;2024-03-02T22:51:30;145204.80;;;9.65;100.00
19674;BME280;9986;50.610;7.230;2024-03-02T23:09:51;145207.31;;;9.66;100.00
19674;BME280;9986;50.610;7.230;2024-03-02T23:22:52;145248.77;;;9.83;100.00
19674;BME280;9986;50.610;7.230;2024-03-02T23:28:08;145226.16;;;9.74;100.00
19674;BME280;9986;50.610;7.230;2024-03-02T23:33:22;145223.64;;;9.73;100.00
19674;BME280;9986;50.610;7.230;2024-03-02T23:43:52;145213.58;;;9.69;100.00
19674;BME280;9986;50.610;7.230;2024-03-02T23:51:42;145265.09;;;9.89;100.00
19674;BME280;9986;50.610;7.230;2024-03-02T23:59:33;145236.23;;;9.78;100.00
